Terminal Aerodrome Forecast
Issued by NWS North Platte, NE

Home | Current Version | Previous Version | Text Only | Print | Product List | Glossary On
Versions: 1 2 3 4 5 6 7 8 9 10 11 12 13 14
000
FTUS43 KLBF 302331
TAFVTN
TAF
KVTN 302331Z 3100/3124 23013KT P6SM VCTS SCT035 BKN070CB OVC100
      TEMPO 3100/3102 VRB20G40KT 1SM +TSRAGS BKN035CB
     FM310300 31015G24KT P6SM SCT050 BKN100 OVC250
     FM310600 33009KT P6SM SCT100 OVC250
     FM311500 30015G22KT P6SM BKN250=

USA.gov is the U.S. government's official web portal to all federal, state and local government web resources and services.